createdAt,value
2017-11-01T00:01:19.842Z,6.30
2017-11-01T00:03:46.125Z,6.30
2017-11-01T00:06:12.783Z,6.30
2017-11-01T00:08:38.872Z,6.30
2017-11-01T00:11:05.003Z,6.30
2017-11-01T00:13:31.213Z,6.30
2017-11-01T00:15:57.450Z,6.30
2017-11-01T00:18:23.711Z,6.40
2017-11-01T00:20:49.850Z,6.40
2017-11-01T00:23:16.043Z,6.40
2017-11-01T00:25:42.239Z,6.40
2017-11-01T00:28:08.378Z,6.50
2017-11-01T00:30:34.551Z,6.50
2017-11-01T00:33:00.710Z,6.50
2017-11-01T00:35:26.982Z,6.50
2017-11-01T00:37:53.164Z,6.50
2017-11-01T00:40:19.336Z,6.50
2017-11-01T00:42:45.467Z,6.50
2017-11-01T00:45:11.641Z,6.40
2017-11-01T00:47:37.783Z,6.40
2017-11-01T00:50:03.970Z,6.40
2017-11-01T00:52:30.908Z,6.30
2017-11-01T00:54:57.771Z,6.30
2017-11-01T00:57:23.868Z,6.30
2017-11-01T00:59:50.156Z,6.30
2017-11-01T01:02:16.455Z,6.20
2017-11-01T01:04:42.655Z,6.20
2017-11-01T01:07:09.498Z,6.20
2017-11-01T01:09:36.507Z,6.30
2017-11-01T01:12:02.769Z,6.30
2017-11-01T01:14:29.714Z,6.30
2017-11-01T01:16:57.031Z,6.30
2017-11-01T01:19:23.143Z,6.20
2017-11-01T01:21:49.317Z,6.30
2017-11-01T01:24:16.258Z,6.20
2017-11-01T01:26:43.121Z,6.20
2017-11-01T01:29:09.290Z,6.10
2017-11-01T01:31:35.508Z,6.20
2017-11-01T01:34:01.757Z,6.20
2017-11-01T01:36:27.925Z,6.20
2017-11-01T01:38:54.906Z,6.10
2017-11-01T01:41:21.053Z,6.10
2017-11-01T01:43:47.211Z,6.10
2017-11-01T01:46:14.089Z,6.10
2017-11-01T01:48:40.301Z,6.10
2017-11-01T01:51:06.648Z,6.20
2017-11-01T01:53:32.795Z,6.10
2017-11-01T01:55:59.065Z,6.10
2017-11-01T01:58:25.906Z,6.10
2017-11-01T02:00:52.981Z,6.10
2017-11-01T02:03:19.174Z,6.10
2017-11-01T02:05:46.069Z,6.10
2017-11-01T02:08:13.092Z,6.10
2017-11-01T02:10:39.180Z,6.10
2017-11-01T02:13:05.377Z,6.10
2017-11-01T02:15:32.240Z,6.10
2017-11-01T02:17:58.478Z,6.10
2017-11-01T02:20:25.421Z,6.20
2017-11-01T02:22:52.351Z,6.20
2017-11-01T02:25:18.509Z,6.20
2017-11-01T02:27:44.731Z,6.20
2017-11-01T02:30:10.860Z,6.20
2017-11-01T02:32:37.057Z,6.20
2017-11-01T02:35:03.961Z,6.20
2017-11-01T02:37:30.089Z,6.20
2017-11-01T02:39:56.265Z,6.20
2017-11-01T02:42:23.153Z,6.20
2017-11-01T02:44:49.432Z,6.20
2017-11-01T02:47:16.293Z,6.30
2017-11-01T02:49:42.419Z,6.30
2017-11-01T02:52:08.579Z,6.30
2017-11-01T02:54:34.712Z,6.30
2017-11-01T02:57:00.824Z,6.30
2017-11-01T02:59:26.967Z,6.30
2017-11-01T03:01:53.111Z,6.30
2017-11-01T03:04:19.318Z,6.30
2017-11-01T03:06:45.463Z,6.30
2017-11-01T03:09:12.426Z,6.30
2017-11-01T03:11:38.585Z,6.30
2017-11-01T03:14:04.741Z,6.30
2017-11-01T03:16:30.898Z,6.30
2017-11-01T03:18:57.758Z,6.30
2017-11-01T03:21:23.997Z,6.30
2017-11-01T03:23:50.238Z,6.30
2017-11-01T03:26:16.393Z,6.30
2017-11-01T03:28:42.704Z,6.30
2017-11-01T03:31:08.797Z,6.20
2017-11-01T03:33:34.922Z,6.20
2017-11-01T03:36:01.085Z,6.20
2017-11-01T03:38:27.251Z,6.20
2017-11-01T03:40:53.494Z,6.20
2017-11-01T03:43:19.722Z,6.20
2017-11-01T03:45:45.874Z,6.20
2017-11-01T03:48:12.185Z,6.20
2017-11-01T03:50:38.414Z,6.20
2017-11-01T03:53:04.532Z,6.20
2017-11-01T03:55:30.715Z,6.20
2017-11-01T03:57:56.921Z,6.20
2017-11-01T04:00:23.060Z,6.20
2017-11-01T04:02:49.340Z,6.30
2017-11-01T04:05:15.620Z,6.30
2017-11-01T04:07:41.860Z,6.30
2017-11-01T04:10:08.763Z,6.40
2017-11-01T04:12:34.880Z,6.40
2017-11-01T04:15:01.834Z,6.50
2017-11-01T04:17:28.008Z,6.40
2017-11-01T04:19:55.290Z,6.50
2017-11-01T04:22:21.397Z,6.50
2017-11-01T04:24:47.665Z,6.50
2017-11-01T04:27:13.887Z,6.50
2017-11-01T04:29:40.007Z,6.50
2017-11-01T04:32:06.257Z,6.50
2017-11-01T04:34:32.408Z,6.50
2017-11-01T04:36:59.306Z,6.50
2017-11-01T04:39:25.484Z,6.50
2017-11-01T04:41:52.459Z,6.50
2017-11-01T04:44:18.649Z,6.50
2017-11-01T04:46:45.486Z,6.50
2017-11-01T04:49:12.418Z,6.50
2017-11-01T04:51:41.244Z,6.50
2017-11-01T04:54:07.466Z,6.50
2017-11-01T04:56:33.890Z,6.50
2017-11-01T04:59:00.117Z,6.50
2017-11-01T05:01:26.448Z,6.50
2017-11-01T05:03:52.698Z,6.50
2017-11-01T05:06:18.835Z,6.50
2017-11-01T05:08:48.929Z,6.50
2017-11-01T05:11:18.006Z,6.50
2017-11-01T05:13:44.132Z,6.50
2017-11-01T05:16:10.329Z,6.50
2017-11-01T05:18:37.303Z,6.60
2017-11-01T05:21:03.464Z,6.50
2017-11-01T05:23:29.621Z,6.60
2017-11-01T05:26:01.802Z,6.50
2017-11-01T05:28:28.663Z,6.50
2017-11-01T05:30:54.754Z,6.50
2017-11-01T05:33:20.960Z,6.50
2017-11-01T05:35:47.145Z,6.50
2017-11-01T05:38:13.313Z,6.50
2017-11-01T05:40:39.432Z,6.40
2017-11-01T05:43:05.602Z,6.50
2017-11-01T05:45:32.610Z,6.50
2017-11-01T05:47:58.943Z,6.50
2017-11-01T05:50:25.145Z,6.50
2017-11-01T05:52:51.397Z,6.50
2017-11-01T05:55:17.624Z,6.50
2017-11-01T05:57:43.695Z,6.50
2017-11-01T06:00:09.875Z,6.50
2017-11-01T06:02:36.091Z,6.50
2017-11-01T06:05:02.253Z,6.50
2017-11-01T06:07:29.122Z,6.40
2017-11-01T06:09:55.351Z,6.40
2017-11-01T06:12:21.704Z,6.40
2017-11-01T06:14:47.869Z,6.40
2017-11-01T06:17:14.691Z,6.40
2017-11-01T06:19:40.853Z,6.40
2017-11-01T06:22:06.947Z,6.40
2017-11-01T06:24:33.870Z,6.50
2017-11-01T06:27:00.055Z,6.50
2017-11-01T06:29:26.197Z,6.50
2017-11-01T06:31:52.316Z,6.50
2017-11-01T06:34:18.560Z,6.50
2017-11-01T06:36:46.657Z,6.50
2017-11-01T06:39:12.897Z,6.50
2017-11-01T06:41:39.008Z,6.60
2017-11-01T06:44:05.194Z,6.60
2017-11-01T06:46:31.364Z,6.60
2017-11-01T06:48:57.482Z,6.60
2017-11-01T06:51:23.605Z,6.60
2017-11-01T06:53:49.738Z,6.70
2017-11-01T06:56:15.923Z,6.70
2017-11-01T06:58:42.078Z,6.60
2017-11-01T07:01:11.426Z,6.70
2017-11-01T07:03:37.642Z,6.60
2017-11-01T07:06:03.833Z,6.70
2017-11-01T07:08:30.090Z,6.70
2017-11-01T07:10:57.016Z,6.60
2017-11-01T07:13:23.124Z,6.60
2017-11-01T07:15:49.288Z,6.70
2017-11-01T07:18:15.490Z,6.70
2017-11-01T07:20:41.631Z,6.70
2017-11-01T07:23:08.683Z,6.80
2017-11-01T07:25:35.604Z,6.70
2017-11-01T07:28:01.837Z,6.70
2017-11-01T07:30:28.741Z,6.80
2017-11-01T07:32:54.899Z,6.80
2017-11-01T07:35:21.179Z,6.80
2017-11-01T07:37:47.350Z,6.90
2017-11-01T07:40:13.531Z,6.90
2017-11-01T07:42:39.633Z,6.90
2017-11-01T07:45:05.768Z,6.90
2017-11-01T07:47:31.898Z,7.00
2017-11-01T07:49:58.018Z,7.00
2017-11-01T07:52:24.238Z,7.10
2017-11-01T07:54:50.446Z,7.10
2017-11-01T07:57:16.649Z,7.10
2017-11-01T07:59:42.916Z,7.10
2017-11-01T08:02:09.191Z,7.20
2017-11-01T08:04:35.568Z,7.20
2017-11-01T08:07:02.490Z,7.30
2017-11-01T08:09:29.445Z,7.30
2017-11-01T08:11:56.280Z,7.30
2017-11-01T08:14:23.159Z,7.30
2017-11-01T08:16:49.407Z,7.30
2017-11-01T08:19:15.528Z,7.30
2017-11-01T08:21:41.678Z,7.30
2017-11-01T08:24:07.880Z,7.30
2017-11-01T08:26:34.176Z,7.40
2017-11-01T08:29:00.302Z,7.40
2017-11-01T08:31:26.438Z,7.50
2017-11-01T08:33:52.595Z,7.50
2017-11-01T08:36:18.739Z,7.50
2017-11-01T08:38:45.025Z,7.60
2017-11-01T08:41:11.250Z,7.70
2017-11-01T08:43:37.405Z,7.80
2017-11-01T08:46:03.562Z,7.90
2017-11-01T08:48:30.530Z,8.00
2017-11-01T08:50:56.703Z,8.00
2017-11-01T08:53:22.813Z,8.10
2017-11-01T08:55:48.926Z,8.10
2017-11-01T08:58:15.121Z,8.20
2017-11-01T09:00:41.254Z,8.20
2017-11-01T09:03:07.476Z,8.30
2017-11-01T09:05:33.592Z,8.40
2017-11-01T09:07:59.777Z,8.50
2017-11-01T09:10:25.903Z,8.50
2017-11-01T09:12:52.015Z,8.50
2017-11-01T09:15:18.156Z,8.50
2017-11-01T09:17:44.277Z,8.50
2017-11-01T09:20:10.508Z,8.50
2017-11-01T09:22:36.670Z,8.70
2017-11-01T09:25:02.924Z,8.80
2017-11-01T09:27:29.118Z,8.90
2017-11-01T09:29:55.276Z,8.90
2017-11-01T09:32:21.407Z,8.80
2017-11-01T09:34:47.594Z,8.80
2017-11-01T09:37:13.783Z,8.70
2017-11-01T09:39:40.026Z,8.70
2017-11-01T09:42:06.201Z,8.70
2017-11-01T09:44:32.430Z,8.60
2017-11-01T09:46:58.662Z,8.60
2017-11-01T09:49:24.836Z,8.70
2017-11-01T09:51:51.691Z,8.70
2017-11-01T09:54:18.005Z,8.70
2017-11-01T09:56:44.893Z,8.70
2017-11-01T09:59:11.029Z,8.70
2017-11-01T10:01:37.146Z,8.80
2017-11-01T10:04:03.373Z,8.80
2017-11-01T10:06:29.617Z,8.80
2017-11-01T10:08:55.741Z,8.80
2017-11-01T10:11:21.940Z,8.70
2017-11-01T10:13:48.060Z,8.70
2017-11-01T10:16:14.239Z,8.80
2017-11-01T10:18:40.431Z,8.80
2017-11-01T10:21:06.599Z,8.80
2017-11-01T10:23:32.809Z,8.80
2017-11-01T10:25:58.937Z,8.90
2017-11-01T10:28:25.098Z,9.00
2017-11-01T10:30:51.342Z,9.10
2017-11-01T10:33:17.454Z,9.20
2017-11-01T10:35:43.649Z,9.30
2017-11-01T10:38:09.855Z,9.60
2017-11-01T10:40:36.039Z,9.70
2017-11-01T10:43:02.335Z,9.80
2017-11-01T10:45:29.249Z,9.90
2017-11-01T10:47:55.432Z,9.90
2017-11-01T10:50:21.621Z,10.10
2017-11-01T10:52:47.834Z,10.20
2017-11-01T10:55:13.965Z,10.20
2017-11-01T10:57:40.079Z,10.20
2017-11-01T11:00:06.348Z,10.30
2017-11-01T11:02:33.318Z,10.50
2017-11-01T11:04:59.590Z,10.50
2017-11-01T11:07:25.777Z,10.80
2017-11-01T11:09:52.004Z,11.00
2017-11-01T11:12:18.192Z,11.10
2017-11-01T11:14:45.218Z,11.20
2017-11-01T11:17:12.081Z,11.20
2017-11-01T11:19:39.043Z,11.10
2017-11-01T11:22:05.300Z,11.10
2017-11-01T11:24:31.515Z,11.00
2017-11-01T11:26:57.719Z,11.00
2017-11-01T11:29:23.856Z,11.00
2017-11-01T11:31:50.271Z,11.00
2017-11-01T11:34:17.278Z,10.90
2017-11-01T11:36:43.523Z,10.90
2017-11-01T11:39:10.009Z,11.00
2017-11-01T11:41:36.159Z,11.00
2017-11-01T11:44:02.376Z,11.10
2017-11-01T11:46:28.725Z,11.10
2017-11-01T11:48:54.932Z,11.00
2017-11-01T11:51:21.055Z,11.10
2017-11-01T11:53:47.262Z,11.10
2017-11-01T11:56:13.433Z,11.10
2017-11-01T11:58:39.664Z,11.20
2017-11-01T12:01:05.773Z,11.10
2017-11-01T12:03:32.700Z,11.30
2017-11-01T12:05:59.734Z,11.40
2017-11-01T12:08:25.922Z,11.40
2017-11-01T12:10:52.898Z,11.40
2017-11-01T12:13:19.127Z,11.40
2017-11-01T12:15:45.349Z,11.30
2017-11-01T12:18:11.507Z,11.20
2017-11-01T12:20:37.724Z,11.20
2017-11-01T12:23:03.896Z,11.20
2017-11-01T12:25:30.820Z,11.20
2017-11-01T12:27:56.953Z,11.20
2017-11-01T12:30:23.122Z,11.20
2017-11-01T12:32:49.362Z,11.20
2017-11-01T12:35:15.698Z,11.20
2017-11-01T12:37:42.594Z,11.10
2017-11-01T12:40:08.721Z,11.10
2017-11-01T12:42:35.774Z,11.20
2017-11-01T12:45:02.329Z,11.20
2017-11-01T12:47:28.506Z,11.20
2017-11-01T12:49:54.588Z,11.20
2017-11-01T12:52:20.764Z,11.20
2017-11-01T12:54:47.085Z,11.20
2017-11-01T12:57:13.417Z,11.20
2017-11-01T12:59:40.492Z,11.20
2017-11-01T13:02:06.895Z,11.20
2017-11-01T13:04:33.289Z,11.20
2017-11-01T13:06:59.417Z,11.20
2017-11-01T13:09:25.561Z,11.20
2017-11-01T13:11:51.769Z,11.20
2017-11-01T13:14:17.891Z,11.20
2017-11-01T13:16:44.391Z,11.10
2017-11-01T13:19:10.581Z,11.00
2017-11-01T13:21:36.715Z,11.00
2017-11-01T13:24:03.687Z,11.00
2017-11-01T13:26:29.838Z,11.00
2017-11-01T13:28:56.317Z,11.00
2017-11-01T13:31:22.523Z,11.00
2017-11-01T13:33:48.808Z,10.90
2017-11-01T13:36:15.006Z,10.90
2017-11-01T13:38:41.926Z,10.90
2017-11-01T13:41:08.171Z,10.90
2017-11-01T13:43:34.409Z,10.90
2017-11-01T13:46:00.613Z,10.90
2017-11-01T13:48:27.067Z,10.90
2017-11-01T13:50:53.968Z,10.80
2017-11-01T13:53:20.120Z,10.80
2017-11-01T13:55:46.429Z,10.80
2017-11-01T13:58:12.560Z,10.70
2017-11-01T14:00:38.768Z,10.70
2017-11-01T14:03:04.922Z,10.60
2017-11-01T14:05:31.260Z,10.60
2017-11-01T14:07:58.211Z,10.50
2017-11-01T14:10:25.099Z,10.50
2017-11-01T14:12:51.282Z,10.50
2017-11-01T14:15:18.326Z,10.40
2017-11-01T14:17:45.195Z,10.40
2017-11-01T14:20:11.395Z,10.40
2017-11-01T14:22:38.254Z,10.30
2017-11-01T14:25:05.109Z,10.20
2017-11-01T14:27:31.333Z,10.20
2017-11-01T14:29:57.561Z,10.20
2017-11-01T14:32:23.711Z,10.10
2017-11-01T14:34:49.938Z,10.10
2017-11-01T14:37:16.073Z,10.00
2017-11-01T14:39:42.262Z,10.00
2017-11-01T14:42:08.506Z,10.00
2017-11-01T14:44:34.832Z,9.90
2017-11-01T14:47:01.008Z,9.90
2017-11-01T14:49:27.118Z,9.90
2017-11-01T14:51:53.291Z,9.90
2017-11-01T14:54:19.570Z,9.80
2017-11-01T14:56:45.786Z,9.80
2017-11-01T14:59:11.945Z,9.80
2017-11-01T15:01:38.972Z,9.80
2017-11-01T15:04:05.148Z,9.70
2017-11-01T15:06:31.427Z,9.70
2017-11-01T15:08:57.588Z,9.70
2017-11-01T15:11:24.706Z,9.60
2017-11-01T15:13:51.740Z,9.60
2017-11-01T15:16:17.949Z,9.60
2017-11-01T15:18:44.111Z,9.60
2017-11-01T15:21:10.240Z,9.60
2017-11-01T15:23:36.436Z,9.50
2017-11-01T15:26:02.708Z,9.40
2017-11-01T15:28:29.609Z,9.30
2017-11-01T15:30:55.877Z,9.30
2017-11-01T15:33:22.877Z,9.20
2017-11-01T15:35:49.038Z,9.20
2017-11-01T15:38:15.198Z,9.20
2017-11-01T15:40:41.329Z,9.10
2017-11-01T15:43:07.494Z,9.00
2017-11-01T15:45:33.657Z,9.00
2017-11-01T15:48:00.678Z,8.80
2017-11-01T15:50:26.876Z,8.80
2017-11-01T15:52:53.021Z,8.70
2017-11-01T15:55:19.160Z,8.70
2017-11-01T15:57:46.131Z,8.40
2017-11-01T16:00:12.396Z,8.40
2017-11-01T16:02:38.617Z,8.40
2017-11-01T16:05:04.877Z,8.40
2017-11-01T16:07:31.027Z,8.40
2017-11-01T16:09:57.337Z,8.40
2017-11-01T16:12:24.265Z,8.30
2017-11-01T16:14:50.479Z,8.20
2017-11-01T16:17:16.745Z,8.20
2017-11-01T16:19:43.714Z,8.10
2017-11-01T16:22:09.881Z,8.10
2017-11-01T16:24:36.106Z,8.10
2017-11-01T16:27:02.223Z,8.00
2017-11-01T16:29:28.537Z,8.00
2017-11-01T16:31:54.723Z,7.90
2017-11-01T16:34:21.595Z,7.90
2017-11-01T16:36:47.854Z,7.90
2017-11-01T16:39:14.846Z,7.90
2017-11-01T16:41:41.828Z,7.90
2017-11-01T16:44:07.992Z,7.90
2017-11-01T16:46:34.451Z,7.90
2017-11-01T16:49:01.312Z,8.00
2017-11-01T16:51:27.504Z,8.00
2017-11-01T16:53:54.570Z,8.00
2017-11-01T16:56:20.784Z,8.00
2017-11-01T16:58:46.903Z,8.00
2017-11-01T17:01:14.041Z,8.00
2017-11-01T17:03:40.261Z,8.00
2017-11-01T17:06:06.532Z,8.00
2017-11-01T17:08:32.714Z,8.00
2017-11-01T17:10:58.845Z,8.00
2017-11-01T17:13:25.109Z,8.00
2017-11-01T17:15:51.247Z,7.90
2017-11-01T17:18:17.450Z,7.90
2017-11-01T17:20:44.403Z,7.70
2017-11-01T17:23:10.701Z,7.70
2017-11-01T17:25:37.761Z,7.70
2017-11-01T17:28:04.651Z,7.70
2017-11-01T17:30:30.843Z,7.70
2017-11-01T17:32:57.044Z,7.70
2017-11-01T17:35:23.264Z,7.70
2017-11-01T17:37:50.266Z,7.60
2017-11-01T17:40:16.687Z,7.50
2017-11-01T17:42:42.864Z,7.50
2017-11-01T17:45:09.649Z,7.40
2017-11-01T17:47:35.935Z,7.40
2017-11-01T17:50:02.086Z,7.40
2017-11-01T17:52:29.028Z,7.50
2017-11-01T17:54:55.355Z,7.50
2017-11-01T17:57:22.288Z,7.60
2017-11-01T17:59:49.256Z,7.60
2017-11-01T18:02:15.467Z,7.60
2017-11-01T18:04:41.630Z,7.70
2017-11-01T18:07:07.781Z,7.70
2017-11-01T18:09:34.408Z,7.80
2017-11-01T18:12:00.690Z,7.90
2017-11-01T18:14:26.965Z,7.90
2017-11-01T18:16:53.158Z,7.90
2017-11-01T18:19:19.446Z,7.90
2017-11-01T18:21:45.650Z,7.90
2017-11-01T18:24:11.842Z,8.00
2017-11-01T18:26:38.157Z,8.00
2017-11-01T18:29:04.383Z,8.10
2017-11-01T18:31:30.545Z,8.10
2017-11-01T18:33:56.702Z,8.10
2017-11-01T18:36:22.915Z,8.10
2017-11-01T18:38:49.208Z,8.10
2017-11-01T18:41:15.564Z,8.10
2017-11-01T18:43:41.747Z,8.00
2017-11-01T18:46:08.016Z,8.00
2017-11-01T18:48:34.320Z,7.90
2017-11-01T18:51:00.412Z,7.90
2017-11-01T18:53:27.491Z,7.90
2017-11-01T18:55:53.796Z,7.80
2017-11-01T18:58:20.788Z,7.90
2017-11-01T19:00:47.144Z,7.90
2017-11-01T19:03:13.289Z,7.90
2017-11-01T19:05:40.412Z,8.00
2017-11-01T19:08:06.623Z,8.00
2017-11-01T19:10:32.836Z,8.10
2017-11-01T19:12:59.125Z,8.10
2017-11-01T19:15:26.084Z,8.30
2017-11-01T19:17:52.202Z,8.30
2017-11-01T19:20:18.452Z,8.40
2017-11-01T19:22:44.661Z,8.50
2017-11-01T19:25:10.949Z,8.50
2017-11-01T19:27:37.131Z,8.60
2017-11-01T19:30:03.369Z,8.60
2017-11-01T19:32:29.628Z,8.60
2017-11-01T19:34:55.841Z,8.60
2017-11-01T19:37:22.045Z,8.50
2017-11-01T19:39:48.349Z,8.50
2017-11-01T19:42:14.658Z,8.40
2017-11-01T19:44:40.942Z,8.30
2017-11-01T19:47:07.136Z,8.20
2017-11-01T19:49:33.407Z,8.00
2017-11-01T19:51:59.582Z,7.90
2017-11-01T19:54:25.854Z,7.80
2017-11-01T19:56:52.170Z,7.70
2017-11-01T19:59:18.426Z,7.60
2017-11-01T20:01:44.683Z,7.60
2017-11-01T20:04:10.954Z,7.50
2017-11-01T20:06:37.217Z,7.40
2017-11-01T20:09:03.485Z,7.40
2017-11-01T20:11:29.631Z,7.30
2017-11-01T20:13:56.848Z,7.30
2017-11-01T20:16:23.086Z,7.30
2017-11-01T20:18:49.316Z,7.20
2017-11-01T20:21:15.525Z,7.10
2017-11-01T20:23:41.788Z,7.10
2017-11-01T20:26:08.285Z,7.00
2017-11-01T20:28:35.288Z,6.90
2017-11-01T20:31:01.482Z,6.90
2017-11-01T20:33:27.798Z,6.80
2017-11-01T20:35:54.079Z,6.80
2017-11-01T20:38:20.246Z,6.70
2017-11-01T20:40:46.458Z,6.80
2017-11-01T20:43:12.776Z,6.80
2017-11-01T20:45:39.811Z,6.80
2017-11-01T20:48:06.118Z,6.80
2017-11-01T20:50:32.257Z,6.80
2017-11-01T20:52:58.429Z,6.80
2017-11-01T20:55:24.628Z,6.90
2017-11-01T20:57:51.538Z,7.10
2017-11-01T21:00:17.820Z,7.10
2017-11-01T21:02:44.044Z,7.20
2017-11-01T21:05:10.391Z,7.40
2017-11-01T21:07:36.593Z,7.40
2017-11-01T21:10:03.643Z,7.30
2017-11-01T21:12:30.498Z,7.20
2017-11-01T21:14:57.749Z,7.20
2017-11-01T21:17:24.157Z,7.10
2017-11-01T21:19:51.268Z,7.00
2017-11-01T21:22:18.287Z,7.00
2017-11-01T21:24:44.525Z,7.00
2017-11-01T21:27:10.744Z,7.10
2017-11-01T21:29:36.937Z,7.10
2017-11-01T21:32:03.877Z,7.40
2017-11-01T21:34:30.766Z,7.50
2017-11-01T21:36:57.011Z,7.50
2017-11-01T21:39:23.288Z,7.90
2017-11-01T21:41:49.400Z,8.20
2017-11-01T21:44:16.330Z,8.70
2017-11-01T21:46:42.552Z,8.60
2017-11-01T21:49:08.757Z,8.80
2017-11-01T21:51:35.020Z,8.90
2017-11-01T21:54:01.991Z,9.10
2017-11-01T21:56:28.276Z,9.10
2017-11-01T21:58:55.236Z,9.10
2017-11-01T22:01:22.234Z,9.10
2017-11-01T22:03:48.368Z,9.10
2017-11-01T22:06:14.559Z,9.10
2017-11-01T22:08:40.875Z,9.10
2017-11-01T22:11:07.880Z,9.00
2017-11-01T22:13:34.202Z,9.00
2017-11-01T22:16:01.154Z,9.00
2017-11-01T22:18:27.234Z,9.00
2017-11-01T22:20:53.479Z,9.00
2017-11-01T22:23:19.731Z,9.00
2017-11-01T22:25:45.923Z,9.00
2017-11-01T22:28:12.143Z,9.10
2017-11-01T22:30:38.382Z,9.10
2017-11-01T22:33:04.692Z,9.20
2017-11-01T22:35:30.799Z,9.20
2017-11-01T22:37:57.750Z,9.50
2017-11-01T22:40:23.954Z,9.50
2017-11-01T22:42:50.156Z,9.50
2017-11-01T22:45:16.406Z,9.40
2017-11-01T22:47:42.515Z,9.40
2017-11-01T22:50:08.705Z,9.40
2017-11-01T22:52:35.024Z,9.40
2017-11-01T22:55:01.232Z,9.40
2017-11-01T22:57:27.470Z,9.40
2017-11-01T22:59:53.662Z,9.40
2017-11-01T23:02:20.638Z,9.50
2017-11-01T23:04:46.851Z,9.50
2017-11-01T23:07:13.830Z,9.50
2017-11-01T23:09:40.135Z,9.50
2017-11-01T23:12:06.298Z,9.50
2017-11-01T23:14:32.528Z,9.60
2017-11-01T23:16:58.681Z,9.50
2017-11-01T23:19:24.813Z,9.50
2017-11-01T23:21:51.080Z,9.40
2017-11-01T23:24:17.175Z,9.30
2017-11-01T23:26:44.259Z,9.30
2017-11-01T23:29:10.562Z,9.20
2017-11-01T23:31:36.754Z,9.20
2017-11-01T23:34:02.938Z,9.20
2017-11-01T23:36:29.215Z,9.10
2017-11-01T23:38:55.352Z,9.00
2017-11-01T23:41:22.240Z,9.00
2017-11-01T23:43:48.448Z,9.00
2017-11-01T23:46:14.632Z,9.00
2017-11-01T23:48:40.905Z,8.90
2017-11-01T23:51:07.097Z,8.90
2017-11-01T23:53:34.006Z,8.90
2017-11-01T23:56:00.184Z,8.90
2017-11-01T23:58:27.177Z,8.90
